Decoded Metar for KROA (ROANOKE in VA, USA) (IATA:ROA) | Meteo·Mobile Aviation Weather
aviador You're here:

KROA Decoded Metar

ROANOKE in VA, USA
Report Time2018-09-24 18:54:00
UTC Time2018-09-24 19:17:43
Flight Rules ifr IFR
WindCalm
Visibility6437 m
Phenomena:Light Rain
Mist
Clouds:Overcast 008 Hf
Expected CloudBase > 400 ft AGL from Temp-Dew spread
Ceiling800 ft
Temp18°C (ISA +5)
Dew Point17°C (94% RH)
QNH1026 hPa
Density Alt1,644 ft
Elevation1,188 ft
Report Wrong Elevation
Raw Report
KROA 241854Z 00000KT 4SM -RA BR OVC008 18/17 A3031 RMK AO2 RAB02
SLP257 P0001 T01830167=

Extra information for KROA:More info

Metar Taf Metar & Taf Last 4 Metars F.Rules Stats Wind Profile Meteogram Temp Stats Airport Information Weather charts Add Link Nearby VenuesMetar ALERT Operation Metar Decoded Social comments

AIRNAV info for KROA